sensor_id;sensor_type;location;lat;lon;timestamp;P1;durP1;ratioP1;P2;durP2;ratioP2
51913;SDS011;37940;53.002;6.930;2022-08-27T00:00:18;7.18;;;2.10;;
51913;SDS011;37940;53.002;6.930;2022-08-27T00:02:45;7.30;;;2.10;;
51913;SDS011;37940;53.002;6.930;2022-08-27T00:05:12;5.10;;;1.80;;
51913;SDS011;37940;53.002;6.930;2022-08-27T00:07:39;8.25;;;2.05;;
51913;SDS011;37940;53.002;6.930;2022-08-27T00:10:07;6.03;;;1.77;;
51913;SDS011;37940;53.002;6.930;2022-08-27T00:12:34;7.43;;;2.00;;
51913;SDS011;37940;53.002;6.930;2022-08-27T00:15:00;7.05;;;1.90;;
51913;SDS011;37940;53.002;6.930;2022-08-27T00:17:27;9.07;;;2.85;;
51913;SDS011;37940;53.002;6.930;2022-08-27T00:19:53;6.55;;;2.22;;
51913;SDS011;37940;53.002;6.930;2022-08-27T00:22:19;6.13;;;1.98;;
51913;SDS011;37940;53.002;6.930;2022-08-27T00:24:44;8.15;;;2.15;;
51913;SDS011;37940;53.002;6.930;2022-08-27T00:27:10;5.68;;;1.98;;
51913;SDS011;37940;53.002;6.930;2022-08-27T00:29:36;6.97;;;2.15;;
51913;SDS011;37940;53.002;6.930;2022-08-27T00:32:02;6.32;;;2.08;;
51913;SDS011;37940;53.002;6.930;2022-08-27T00:34:28;5.63;;;1.90;;
51913;SDS011;37940;53.002;6.930;2022-08-27T00:36:53;7.13;;;2.10;;
51913;SDS011;37940;53.002;6.930;2022-08-27T00:39:19;4.88;;;1.90;;
51913;SDS011;37940;53.002;6.930;2022-08-27T00:41:45;5.47;;;2.00;;
51913;SDS011;37940;53.002;6.930;2022-08-27T00:44:11;6.70;;;1.75;;
51913;SDS011;37940;53.002;6.930;2022-08-27T00:46:45;6.18;;;2.03;;
51913;SDS011;37940;53.002;6.930;2022-08-27T00:49:16;6.28;;;1.70;;
51913;SDS011;37940;53.002;6.930;2022-08-27T00:54:16;6.72;;;2.10;;
51913;SDS011;37940;53.002;6.930;2022-08-27T00:56:42;8.88;;;2.30;;
51913;SDS011;37940;53.002;6.930;2022-08-27T00:59:10;6.88;;;2.00;;
51913;SDS011;37940;53.002;6.930;2022-08-27T01:01:39;8.20;;;1.95;;
51913;SDS011;37940;53.002;6.930;2022-08-27T01:04:26;6.72;;;1.98;;
51913;SDS011;37940;53.002;6.930;2022-08-27T01:06:52;4.28;;;1.88;;
51913;SDS011;37940;53.002;6.930;2022-08-27T01:09:18;6.78;;;1.90;;
51913;SDS011;37940;53.002;6.930;2022-08-27T01:11:44;3.90;;;1.60;;
51913;SDS011;37940;53.002;6.930;2022-08-27T01:14:12;6.72;;;2.10;;
51913;SDS011;37940;53.002;6.930;2022-08-27T01:16:38;8.10;;;2.13;;
51913;SDS011;37940;53.002;6.930;2022-08-27T01:19:13;6.45;;;2.20;;
51913;SDS011;37940;53.002;6.930;2022-08-27T01:24:53;5.10;;;1.98;;
51913;SDS011;37940;53.002;6.930;2022-08-27T01:27:23;5.72;;;2.20;;
51913;SDS011;37940;53.002;6.930;2022-08-27T01:29:50;7.80;;;1.98;;
51913;SDS011;37940;53.002;6.930;2022-08-27T01:32:18;7.40;;;2.00;;
51913;SDS011;37940;53.002;6.930;2022-08-27T01:34:46;6.95;;;2.10;;
51913;SDS011;37940;53.002;6.930;2022-08-27T01:37:13;8.48;;;2.15;;
51913;SDS011;37940;53.002;6.930;2022-08-27T01:39:40;9.45;;;2.65;;
51913;SDS011;37940;53.002;6.930;2022-08-27T01:42:16;8.40;;;2.22;;
51913;SDS011;37940;53.002;6.930;2022-08-27T01:44:51;12.02;;;2.05;;
51913;SDS011;37940;53.002;6.930;2022-08-27T01:47:23;7.90;;;2.25;;
51913;SDS011;37940;53.002;6.930;2022-08-27T01:49:50;5.72;;;2.10;;
51913;SDS011;37940;53.002;6.930;2022-08-27T01:52:18;9.57;;;2.20;;
51913;SDS011;37940;53.002;6.930;2022-08-27T01:54:47;10.70;;;2.33;;
51913;SDS011;37940;53.002;6.930;2022-08-27T01:57:13;7.88;;;2.42;;
51913;SDS011;37940;53.002;6.930;2022-08-27T01:59:39;6.78;;;2.05;;
51913;SDS011;37940;53.002;6.930;2022-08-27T02:02:05;7.50;;;2.10;;
51913;SDS011;37940;53.002;6.930;2022-08-27T02:04:33;6.20;;;2.00;;
51913;SDS011;37940;53.002;6.930;2022-08-27T02:06:58;7.05;;;2.20;;
51913;SDS011;37940;53.002;6.930;2022-08-27T02:09:24;5.20;;;1.98;;
51913;SDS011;37940;53.002;6.930;2022-08-27T02:11:51;7.30;;;2.30;;
51913;SDS011;37940;53.002;6.930;2022-08-27T02:14:17;5.38;;;2.28;;
51913;SDS011;37940;53.002;6.930;2022-08-27T02:16:43;5.18;;;1.90;;
51913;SDS011;37940;53.002;6.930;2022-08-27T02:19:08;9.35;;;2.13;;
51913;SDS011;37940;53.002;6.930;2022-08-27T02:21:34;6.13;;;2.30;;
51913;SDS011;37940;53.002;6.930;2022-08-27T02:24:00;7.05;;;2.38;;
51913;SDS011;37940;53.002;6.930;2022-08-27T02:26:26;7.45;;;2.35;;
51913;SDS011;37940;53.002;6.930;2022-08-27T02:28:55;6.00;;;2.03;;
51913;SDS011;37940;53.002;6.930;2022-08-27T02:31:23;5.30;;;2.10;;
51913;SDS011;37940;53.002;6.930;2022-08-27T02:33:49;6.18;;;2.22;;
51913;SDS011;37940;53.002;6.930;2022-08-27T02:36:15;6.45;;;2.00;;
51913;SDS011;37940;53.002;6.930;2022-08-27T02:38:42;6.88;;;2.20;;
51913;SDS011;37940;53.002;6.930;2022-08-27T02:41:08;8.75;;;2.90;;
51913;SDS011;37940;53.002;6.930;2022-08-27T02:43:34;5.07;;;2.30;;
51913;SDS011;37940;53.002;6.930;2022-08-27T02:46:00;5.65;;;2.30;;
51913;SDS011;37940;53.002;6.930;2022-08-27T02:48:27;6.47;;;2.40;;
51913;SDS011;37940;53.002;6.930;2022-08-27T02:50:53;6.88;;;2.55;;
51913;SDS011;37940;53.002;6.930;2022-08-27T02:53:19;6.40;;;2.40;;
51913;SDS011;37940;53.002;6.930;2022-08-27T02:55:45;9.43;;;2.50;;
51913;SDS011;37940;53.002;6.930;2022-08-27T02:58:10;8.07;;;2.40;;
51913;SDS011;37940;53.002;6.930;2022-08-27T03:00:40;5.68;;;2.30;;
51913;SDS011;37940;53.002;6.930;2022-08-27T03:03:09;6.35;;;2.55;;
51913;SDS011;37940;53.002;6.930;2022-08-27T03:05:35;7.10;;;2.60;;
51913;SDS011;37940;53.002;6.930;2022-08-27T03:08:03;5.63;;;2.38;;
51913;SDS011;37940;53.002;6.930;2022-08-27T03:10:29;6.43;;;2.72;;
51913;SDS011;37940;53.002;6.930;2022-08-27T03:12:55;5.90;;;2.53;;
51913;SDS011;37940;53.002;6.930;2022-08-27T03:15:21;5.40;;;2.50;;
51913;SDS011;37940;53.002;6.930;2022-08-27T03:17:50;7.20;;;2.67;;
51913;SDS011;37940;53.002;6.930;2022-08-27T03:20:38;6.05;;;2.53;;
51913;SDS011;37940;53.002;6.930;2022-08-27T03:23:06;6.55;;;2.40;;
51913;SDS011;37940;53.002;6.930;2022-08-27T03:25:32;7.65;;;2.63;;
51913;SDS011;37940;53.002;6.930;2022-08-27T03:27:58;5.70;;;2.70;;
51913;SDS011;37940;53.002;6.930;2022-08-27T03:30:24;7.30;;;2.50;;
51913;SDS011;37940;53.002;6.930;2022-08-27T03:32:50;7.50;;;2.65;;
51913;SDS011;37940;53.002;6.930;2022-08-27T03:35:16;6.97;;;2.40;;
51913;SDS011;37940;53.002;6.930;2022-08-27T03:37:42;7.13;;;2.65;;
51913;SDS011;37940;53.002;6.930;2022-08-27T03:40:08;6.22;;;2.38;;
51913;SDS011;37940;53.002;6.930;2022-08-27T03:42:35;7.15;;;2.50;;
51913;SDS011;37940;53.002;6.930;2022-08-27T03:45:01;4.97;;;2.40;;
51913;SDS011;37940;53.002;6.930;2022-08-27T03:47:26;9.27;;;2.25;;
51913;SDS011;37940;53.002;6.930;2022-08-27T03:49:52;7.03;;;2.50;;
51913;SDS011;37940;53.002;6.930;2022-08-27T03:52:18;6.22;;;2.30;;
51913;SDS011;37940;53.002;6.930;2022-08-27T03:54:44;6.47;;;2.20;;
51913;SDS011;37940;53.002;6.930;2022-08-27T03:57:10;6.65;;;2.55;;
51913;SDS011;37940;53.002;6.930;2022-08-27T03:59:36;6.75;;;2.50;;
51913;SDS011;37940;53.002;6.930;2022-08-27T04:02:02;5.43;;;2.13;;
51913;SDS011;37940;53.002;6.930;2022-08-27T04:04:28;5.18;;;2.40;;
51913;SDS011;37940;53.002;6.930;2022-08-27T04:06:55;11.13;;;2.50;;
51913;SDS011;37940;53.002;6.930;2022-08-27T04:09:21;10.20;;;3.17;;
51913;SDS011;37940;53.002;6.930;2022-08-27T04:11:47;6.30;;;2.28;;
51913;SDS011;37940;53.002;6.930;2022-08-27T04:14:13;7.03;;;2.30;;
51913;SDS011;37940;53.002;6.930;2022-08-27T04:16:39;7.97;;;2.38;;
51913;SDS011;37940;53.002;6.930;2022-08-27T04:19:05;6.70;;;2.42;;
51913;SDS011;37940;53.002;6.930;2022-08-27T04:21:32;4.70;;;2.03;;
51913;SDS011;37940;53.002;6.930;2022-08-27T04:23:59;5.40;;;2.00;;
51913;SDS011;37940;53.002;6.930;2022-08-27T04:26:26;8.52;;;2.15;;
51913;SDS011;37940;53.002;6.930;2022-08-27T04:28:52;7.93;;;2.15;;
51913;SDS011;37940;53.002;6.930;2022-08-27T04:31:19;6.90;;;2.15;;
51913;SDS011;37940;53.002;6.930;2022-08-27T04:33:46;6.85;;;2.30;;
51913;SDS011;37940;53.002;6.930;2022-08-27T04:36:12;4.93;;;1.98;;
51913;SDS011;37940;53.002;6.930;2022-08-27T04:38:38;7.35;;;2.53;;
51913;SDS011;37940;53.002;6.930;2022-08-27T04:41:04;7.22;;;2.28;;
51913;SDS011;37940;53.002;6.930;2022-08-27T04:43:49;6.47;;;2.17;;
51913;SDS011;37940;53.002;6.930;2022-08-27T04:46:30;5.40;;;1.97;;
51913;SDS011;37940;53.002;6.930;2022-08-27T04:48:58;6.50;;;2.13;;
51913;SDS011;37940;53.002;6.930;2022-08-27T04:51:26;8.77;;;2.47;;
51913;SDS011;37940;53.002;6.930;2022-08-27T04:53:53;8.00;;;2.10;;
51913;SDS011;37940;53.002;6.930;2022-08-27T04:56:19;6.07;;;2.08;;
51913;SDS011;37940;53.002;6.930;2022-08-27T04:58:46;8.32;;;2.53;;
51913;SDS011;37940;53.002;6.930;2022-08-27T05:01:23;5.38;;;2.35;;
51913;SDS011;37940;53.002;6.930;2022-08-27T05:03:50;6.72;;;2.35;;
51913;SDS011;37940;53.002;6.930;2022-08-27T05:06:17;7.70;;;2.65;;
51913;SDS011;37940;53.002;6.930;2022-08-27T05:08:43;7.05;;;2.40;;
51913;SDS011;37940;53.002;6.930;2022-08-27T05:11:10;6.82;;;2.63;;
51913;SDS011;37940;53.002;6.930;2022-08-27T05:13:39;9.43;;;2.90;;
51913;SDS011;37940;53.002;6.930;2022-08-27T05:16:07;7.95;;;2.63;;
51913;SDS011;37940;53.002;6.930;2022-08-27T05:18:35;5.30;;;2.58;;
51913;SDS011;37940;53.002;6.930;2022-08-27T05:21:02;4.85;;;2.35;;
51913;SDS011;37940;53.002;6.930;2022-08-27T05:23:29;7.78;;;2.78;;
51913;SDS011;37940;53.002;6.930;2022-08-27T05:25:55;6.13;;;2.63;;
51913;SDS011;37940;53.002;6.930;2022-08-27T05:28:22;7.15;;;2.78;;
51913;SDS011;37940;53.002;6.930;2022-08-27T05:30:50;6.85;;;2.65;;
51913;SDS011;37940;53.002;6.930;2022-08-27T05:33:19;6.85;;;2.58;;
51913;SDS011;37940;53.002;6.930;2022-08-27T05:35:47;7.85;;;2.58;;
51913;SDS011;37940;53.002;6.930;2022-08-27T05:38:18;6.10;;;2.40;;
51913;SDS011;37940;53.002;6.930;2022-08-27T05:40:44;9.30;;;2.50;;
51913;SDS011;37940;53.002;6.930;2022-08-27T05:43:12;8.73;;;2.25;;
51913;SDS011;37940;53.002;6.930;2022-08-27T05:45:48;6.88;;;2.47;;
51913;SDS011;37940;53.002;6.930;2022-08-27T05:48:14;6.43;;;2.40;;
51913;SDS011;37940;53.002;6.930;2022-08-27T05:50:41;9.18;;;2.05;;
51913;SDS011;37940;53.002;6.930;2022-08-27T05:53:09;6.20;;;2.10;;
51913;SDS011;37940;53.002;6.930;2022-08-27T05:55:39;4.95;;;1.92;;
51913;SDS011;37940;53.002;6.930;2022-08-27T05:58:07;6.15;;;2.17;;
51913;SDS011;37940;53.002;6.930;2022-08-27T06:00:53;7.55;;;2.55;;
51913;SDS011;37940;53.002;6.930;2022-08-27T06:03:29;6.72;;;2.20;;
51913;SDS011;37940;53.002;6.930;2022-08-27T06:05:59;6.10;;;2.05;;
51913;SDS011;37940;53.002;6.930;2022-08-27T06:08:30;9.95;;;2.20;;
51913;SDS011;37940;53.002;6.930;2022-08-27T06:10:58;5.80;;;2.30;;
51913;SDS011;37940;53.002;6.930;2022-08-27T06:13:26;5.45;;;2.00;;
51913;SDS011;37940;53.002;6.930;2022-08-27T06:16:02;6.60;;;2.00;;
51913;SDS011;37940;53.002;6.930;2022-08-27T06:18:33;5.57;;;2.00;;
51913;SDS011;37940;53.002;6.930;2022-08-27T06:21:00;6.22;;;1.92;;
51913;SDS011;37940;53.002;6.930;2022-08-27T06:23:26;6.40;;;2.15;;
51913;SDS011;37940;53.002;6.930;2022-08-27T06:25:52;5.43;;;1.90;;
51913;SDS011;37940;53.002;6.930;2022-08-27T06:28:19;10.07;;;2.63;;
51913;SDS011;37940;53.002;6.930;2022-08-27T06:30:46;7.07;;;2.13;;
51913;SDS011;37940;53.002;6.930;2022-08-27T06:33:11;7.80;;;1.92;;
51913;SDS011;37940;53.002;6.930;2022-08-27T06:35:37;5.95;;;2.10;;
51913;SDS011;37940;53.002;6.930;2022-08-27T06:38:03;8.10;;;2.30;;
51913;SDS011;37940;53.002;6.930;2022-08-27T06:40:29;6.35;;;1.90;;
51913;SDS011;37940;53.002;6.930;2022-08-27T06:42:54;5.85;;;2.10;;
51913;SDS011;37940;53.002;6.930;2022-08-27T06:45:20;11.27;;;2.25;;
51913;SDS011;37940;53.002;6.930;2022-08-27T06:47:46;7.97;;;2.45;;
51913;SDS011;37940;53.002;6.930;2022-08-27T06:50:12;6.40;;;2.47;;
51913;SDS011;37940;53.002;6.930;2022-08-27T06:52:40;7.07;;;2.05;;
51913;SDS011;37940;53.002;6.930;2022-08-27T06:55:06;7.80;;;2.10;;
51913;SDS011;37940;53.002;6.930;2022-08-27T06:57:33;10.80;;;2.20;;
51913;SDS011;37940;53.002;6.930;2022-08-27T06:59:59;7.72;;;2.00;;
51913;SDS011;37940;53.002;6.930;2022-08-27T07:02:25;8.68;;;2.25;;
51913;SDS011;37940;53.002;6.930;2022-08-27T07:04:51;6.70;;;1.90;;
51913;SDS011;37940;53.002;6.930;2022-08-27T07:07:18;8.65;;;2.60;;
51913;SDS011;37940;53.002;6.930;2022-08-27T07:09:44;8.20;;;2.28;;
51913;SDS011;37940;53.002;6.930;2022-08-27T07:12:09;8.02;;;2.30;;
51913;SDS011;37940;53.002;6.930;2022-08-27T07:14:35;8.60;;;2.00;;
51913;SDS011;37940;53.002;6.930;2022-08-27T07:17:01;11.15;;;2.22;;
51913;SDS011;37940;53.002;6.930;2022-08-27T07:19:27;7.68;;;2.40;;
51913;SDS011;37940;53.002;6.930;2022-08-27T07:21:54;7.63;;;1.95;;
51913;SDS011;37940;53.002;6.930;2022-08-27T07:24:20;6.30;;;2.10;;
51913;SDS011;37940;53.002;6.930;2022-08-27T07:26:45;7.93;;;2.13;;
51913;SDS011;37940;53.002;6.930;2022-08-27T07:29:12;7.28;;;1.85;;
51913;SDS011;37940;53.002;6.930;2022-08-27T07:31:39;10.13;;;1.98;;
51913;SDS011;37940;53.002;6.930;2022-08-27T07:34:05;8.63;;;2.42;;
51913;SDS011;37940;53.002;6.930;2022-08-27T07:36:32;5.30;;;1.50;;
51913;SDS011;37940;53.002;6.930;2022-08-27T07:38:58;3.85;;;1.30;;
51913;SDS011;37940;53.002;6.930;2022-08-27T07:41:24;4.35;;;1.60;;
51913;SDS011;37940;53.002;6.930;2022-08-27T07:43:50;8.88;;;2.13;;
51913;SDS011;37940;53.002;6.930;2022-08-27T07:46:35;5.65;;;1.80;;
51913;SDS011;37940;53.002;6.930;2022-08-27T07:49:01;6.97;;;2.03;;
51913;SDS011;37940;53.002;6.930;2022-08-27T07:51:27;7.68;;;2.15;;
51913;SDS011;37940;53.002;6.930;2022-08-27T07:53:56;4.93;;;1.60;;
51913;SDS011;37940;53.002;6.930;2022-08-27T07:56:22;9.30;;;1.90;;
51913;SDS011;37940;53.002;6.930;2022-08-27T07:58:49;7.30;;;1.70;;
51913;SDS011;37940;53.002;6.930;2022-08-27T08:01:15;10.23;;;2.28;;
51913;SDS011;37940;53.002;6.930;2022-08-27T08:03:42;8.80;;;1.98;;
51913;SDS011;37940;53.002;6.930;2022-08-27T08:06:12;7.00;;;2.03;;
51913;SDS011;37940;53.002;6.930;2022-08-27T08:08:39;12.80;;;3.00;;
51913;SDS011;37940;53.002;6.930;2022-08-27T08:11:06;8.20;;;2.15;;
51913;SDS011;37940;53.002;6.930;2022-08-27T08:13:33;9.05;;;2.72;;
51913;SDS011;37940;53.002;6.930;2022-08-27T08:16:00;5.70;;;1.83;;
51913;SDS011;37940;53.002;6.930;2022-08-27T08:18:26;11.35;;;2.33;;
51913;SDS011;37940;53.002;6.930;2022-08-27T08:20:57;11.52;;;2.33;;
51913;SDS011;37940;53.002;6.930;2022-08-27T08:23:24;8.27;;;2.03;;
51913;SDS011;37940;53.002;6.930;2022-08-27T08:25:51;8.23;;;1.95;;
51913;SDS011;37940;53.002;6.930;2022-08-27T08:28:16;6.90;;;1.80;;
51913;SDS011;37940;53.002;6.930;2022-08-27T08:30:42;8.65;;;2.15;;
51913;SDS011;37940;53.002;6.930;2022-08-27T08:33:08;5.15;;;1.63;;
51913;SDS011;37940;53.002;6.930;2022-08-27T08:35:36;5.90;;;1.58;;
51913;SDS011;37940;53.002;6.930;2022-08-27T08:38:02;7.07;;;1.63;;
51913;SDS011;37940;53.002;6.930;2022-08-27T08:40:37;5.30;;;1.58;;
51913;SDS011;37940;53.002;6.930;2022-08-27T08:43:06;7.63;;;1.88;;
51913;SDS011;37940;53.002;6.930;2022-08-27T08:45:43;5.47;;;1.65;;
51913;SDS011;37940;53.002;6.930;2022-08-27T08:48:18;5.90;;;2.00;;
51913;SDS011;37940;53.002;6.930;2022-08-27T08:51:07;10.55;;;2.00;;
51913;SDS011;37940;53.002;6.930;2022-08-27T08:59:18;5.65;;;1.85;;
51913;SDS011;37940;53.002;6.930;2022-08-27T09:02:05;5.15;;;1.90;;
51913;SDS011;37940;53.002;6.930;2022-08-27T09:04:32;4.57;;;1.65;;
51913;SDS011;37940;53.002;6.930;2022-08-27T09:12:38;6.85;;;1.65;;
51913;SDS011;37940;53.002;6.930;2022-08-27T09:15:06;5.22;;;1.67;;
51913;SDS011;37940;53.002;6.930;2022-08-27T09:17:38;7.78;;;2.17;;
51913;SDS011;37940;53.002;6.930;2022-08-27T09:20:06;8.95;;;1.90;;
51913;SDS011;37940;53.002;6.930;2022-08-27T09:22:47;7.90;;;2.45;;
51913;SDS011;37940;53.002;6.930;2022-08-27T09:25:26;5.82;;;1.85;;
51913;SDS011;37940;53.002;6.930;2022-08-27T09:27:57;8.27;;;1.75;;
51913;SDS011;37940;53.002;6.930;2022-08-27T09:30:28;4.53;;;1.27;;
51913;SDS011;37940;53.002;6.930;2022-08-27T09:33:04;4.82;;;1.70;;
51913;SDS011;37940;53.002;6.930;2022-08-27T09:35:35;6.82;;;1.70;;
51913;SDS011;37940;53.002;6.930;2022-08-27T09:38:06;7.20;;;1.73;;
51913;SDS011;37940;53.002;6.930;2022-08-27T09:40:41;6.70;;;2.00;;
51913;SDS011;37940;53.002;6.930;2022-08-27T09:45:49;6.68;;;1.85;;
51913;SDS011;37940;53.002;6.930;2022-08-27T09:48:27;6.20;;;1.70;;
51913;SDS011;37940;53.002;6.930;2022-08-27T09:51:28;7.57;;;1.65;;
51913;SDS011;37940;53.002;6.930;2022-08-27T09:53:56;7.85;;;2.10;;
51913;SDS011;37940;53.002;6.930;2022-08-27T09:56:34;12.55;;;2.30;;
51913;SDS011;37940;53.002;6.930;2022-08-27T10:01:30;8.32;;;2.22;;
51913;SDS011;37940;53.002;6.930;2022-08-27T10:05:00;8.70;;;2.10;;
51913;SDS011;37940;53.002;6.930;2022-08-27T10:09:58;7.53;;;1.90;;
51913;SDS011;37940;53.002;6.930;2022-08-27T10:15:36;6.82;;;1.95;;
51913;SDS011;37940;53.002;6.930;2022-08-27T10:18:11;9.13;;;2.00;;
51913;SDS011;37940;53.002;6.930;2022-08-27T10:21:10;9.93;;;1.95;;
51913;SDS011;37940;53.002;6.930;2022-08-27T10:23:50;8.57;;;1.90;;
51913;SDS011;37940;53.002;6.930;2022-08-27T10:26:27;9.35;;;2.33;;
51913;SDS011;37940;53.002;6.930;2022-08-27T10:29:39;9.02;;;2.15;;
51913;SDS011;37940;53.002;6.930;2022-08-27T10:35:33;11.88;;;2.17;;
51913;SDS011;37940;53.002;6.930;2022-08-27T10:38:06;11.00;;;2.35;;
51913;SDS011;37940;53.002;6.930;2022-08-27T10:40:41;7.88;;;1.90;;
51913;SDS011;37940;53.002;6.930;2022-08-27T10:45:51;8.15;;;1.88;;
51913;SDS011;37940;53.002;6.930;2022-08-27T10:48:47;8.77;;;1.88;;
51913;SDS011;37940;53.002;6.930;2022-08-27T10:51:34;5.65;;;1.60;;
51913;SDS011;37940;53.002;6.930;2022-08-27T10:54:13;9.15;;;1.83;;
51913;SDS011;37940;53.002;6.930;2022-08-27T11:07:53;9.00;;;1.40;;
51913;SDS011;37940;53.002;6.930;2022-08-27T11:10:27;7.47;;;2.00;;
51913;SDS011;37940;53.002;6.930;2022-08-27T11:12:58;6.65;;;1.60;;
51913;SDS011;37940;53.002;6.930;2022-08-27T11:15:30;5.72;;;1.40;;
51913;SDS011;37940;53.002;6.930;2022-08-27T11:18:00;9.80;;;2.03;;
51913;SDS011;37940;53.002;6.930;2022-08-27T11:20:39;5.85;;;1.50;;
51913;SDS011;37940;53.002;6.930;2022-08-27T11:23:15;5.18;;;1.63;;
51913;SDS011;37940;53.002;6.930;2022-08-27T11:25:49;6.35;;;1.77;;
51913;SDS011;37940;53.002;6.930;2022-08-27T11:28:16;5.97;;;1.63;;
51913;SDS011;37940;53.002;6.930;2022-08-27T11:33:14;8.57;;;2.00;;
51913;SDS011;37940;53.002;6.930;2022-08-27T11:44:14;4.00;;;1.40;;
51913;SDS011;37940;53.002;6.930;2022-08-27T11:46:49;7.57;;;2.28;;
51913;SDS011;37940;53.002;6.930;2022-08-27T11:49:24;5.50;;;1.75;;
51913;SDS011;37940;53.002;6.930;2022-08-27T11:52:03;6.25;;;1.60;;
51913;SDS011;37940;53.002;6.930;2022-08-27T11:54:44;5.68;;;1.85;;
51913;SDS011;37940;53.002;6.930;2022-08-27T11:57:41;6.50;;;1.80;;
51913;SDS011;37940;53.002;6.930;2022-08-27T12:00:13;8.52;;;2.15;;
51913;SDS011;37940;53.002;6.930;2022-08-27T12:02:58;7.22;;;2.10;;
51913;SDS011;37940;53.002;6.930;2022-08-27T12:07:57;10.05;;;2.08;;
51913;SDS011;37940;53.002;6.930;2022-08-27T12:13:42;8.35;;;1.73;;
51913;SDS011;37940;53.002;6.930;2022-08-27T12:19:00;6.30;;;1.60;;
51913;SDS011;37940;53.002;6.930;2022-08-27T12:21:34;5.20;;;1.42;;
51913;SDS011;37940;53.002;6.930;2022-08-27T12:27:15;8.20;;;1.90;;
51913;SDS011;37940;53.002;6.930;2022-08-27T12:34:58;5.22;;;1.60;;
51913;SDS011;37940;53.002;6.930;2022-08-27T12:37:29;7.82;;;1.80;;
51913;SDS011;37940;53.002;6.930;2022-08-27T12:40:01;9.03;;;1.70;;
51913;SDS011;37940;53.002;6.930;2022-08-27T12:42:33;5.18;;;1.50;;
51913;SDS011;37940;53.002;6.930;2022-08-27T12:44:59;5.47;;;1.40;;
51913;SDS011;37940;53.002;6.930;2022-08-27T12:47:25;6.68;;;1.65;;
51913;SDS011;37940;53.002;6.930;2022-08-27T12:49:53;5.97;;;1.67;;
51913;SDS011;37940;53.002;6.930;2022-08-27T12:58:11;6.50;;;1.70;;
51913;SDS011;37940;53.002;6.930;2022-08-27T13:00:20;10.50;;;1.63;;
51913;SDS011;37940;53.002;6.930;2022-08-27T13:02:56;6.47;;;1.63;;
51913;SDS011;37940;53.002;6.930;2022-08-27T13:05:42;9.10;;;1.67;;
51913;SDS011;37940;53.002;6.930;2022-08-27T13:13:39;7.43;;;1.55;;
51913;SDS011;37940;53.002;6.930;2022-08-27T13:16:04;5.38;;;1.65;;
51913;SDS011;37940;53.002;6.930;2022-08-27T13:18:30;9.82;;;1.67;;
51913;SDS011;37940;53.002;6.930;2022-08-27T13:24:12;6.88;;;1.63;;
51913;SDS011;37940;53.002;6.930;2022-08-27T13:26:37;8.23;;;1.70;;
51913;SDS011;37940;53.002;6.930;2022-08-27T13:29:06;6.40;;;1.80;;
51913;SDS011;37940;53.002;6.930;2022-08-27T13:31:33;6.20;;;1.40;;
51913;SDS011;37940;53.002;6.930;2022-08-27T13:33:59;10.65;;;1.70;;
51913;SDS011;37940;53.002;6.930;2022-08-27T13:36:32;7.95;;;1.85;;
51913;SDS011;37940;53.002;6.930;2022-08-27T13:39:02;5.57;;;1.60;;
51913;SDS011;37940;53.002;6.930;2022-08-27T13:41:33;6.45;;;1.52;;
51913;SDS011;37940;53.002;6.930;2022-08-27T13:44:05;7.90;;;1.77;;
51913;SDS011;37940;53.002;6.930;2022-08-27T13:47:04;4.97;;;1.40;;
51913;SDS011;37940;53.002;6.930;2022-08-27T13:49:34;5.05;;;1.48;;
51913;SDS011;37940;53.002;6.930;2022-08-27T13:52:14;5.22;;;1.33;;
51913;SDS011;37940;53.002;6.930;2022-08-27T13:54:44;5.43;;;1.80;;
51913;SDS011;37940;53.002;6.930;2022-08-27T13:57:22;5.07;;;1.52;;
51913;SDS011;37940;53.002;6.930;2022-08-27T13:59:55;7.82;;;1.60;;
51913;SDS011;37940;53.002;6.930;2022-08-27T14:02:31;6.38;;;1.63;;
51913;SDS011;37940;53.002;6.930;2022-08-27T14:05:08;6.65;;;1.30;;
51913;SDS011;37940;53.002;6.930;2022-08-27T14:07:44;5.93;;;1.60;;
51913;SDS011;37940;53.002;6.930;2022-08-27T14:12:44;5.07;;;1.50;;
51913;SDS011;37940;53.002;6.930;2022-08-27T14:15:20;5.57;;;1.85;;
51913;SDS011;37940;53.002;6.930;2022-08-27T14:17:52;6.60;;;1.50;;
51913;SDS011;37940;53.002;6.930;2022-08-27T14:20:18;4.93;;;1.50;;
51913;SDS011;37940;53.002;6.930;2022-08-27T14:22:45;8.27;;;1.70;;
51913;SDS011;37940;53.002;6.930;2022-08-27T14:25:11;3.90;;;1.30;;
51913;SDS011;37940;53.002;6.930;2022-08-27T14:27:38;8.02;;;1.70;;
51913;SDS011;37940;53.002;6.930;2022-08-27T14:30:08;5.32;;;1.52;;
51913;SDS011;37940;53.002;6.930;2022-08-27T14:32:36;5.32;;;1.40;;
51913;SDS011;37940;53.002;6.930;2022-08-27T14:35:03;6.75;;;1.50;;
51913;SDS011;37940;53.002;6.930;2022-08-27T14:37:29;5.80;;;1.50;;
51913;SDS011;37940;53.002;6.930;2022-08-27T14:39:54;4.63;;;1.45;;
51913;SDS011;37940;53.002;6.930;2022-08-27T14:42:20;7.15;;;1.50;;
51913;SDS011;37940;53.002;6.930;2022-08-27T14:44:46;8.20;;;1.40;;
51913;SDS011;37940;53.002;6.930;2022-08-27T14:47:12;4.35;;;1.23;;
51913;SDS011;37940;53.002;6.930;2022-08-27T14:49:41;3.97;;;1.33;;
51913;SDS011;37940;53.002;6.930;2022-08-27T14:52:11;7.25;;;1.65;;
51913;SDS011;37940;53.002;6.930;2022-08-27T14:54:37;6.35;;;1.58;;
51913;SDS011;37940;53.002;6.930;2022-08-27T14:57:05;6.85;;;1.83;;
51913;SDS011;37940;53.002;6.930;2022-08-27T14:59:31;7.35;;;1.50;;
51913;SDS011;37940;53.002;6.930;2022-08-27T15:01:58;6.68;;;1.90;;
51913;SDS011;37940;53.002;6.930;2022-08-27T15:04:26;9.18;;;1.80;;
51913;SDS011;37940;53.002;6.930;2022-08-27T15:06:53;5.97;;;1.65;;
51913;SDS011;37940;53.002;6.930;2022-08-27T15:09:19;4.93;;;1.85;;
51913;SDS011;37940;53.002;6.930;2022-08-27T15:11:45;6.57;;;1.83;;
51913;SDS011;37940;53.002;6.930;2022-08-27T15:14:23;5.50;;;1.73;;
51913;SDS011;37940;53.002;6.930;2022-08-27T15:16:55;5.80;;;1.52;;
51913;SDS011;37940;53.002;6.930;2022-08-27T15:19:22;3.42;;;1.40;;
51913;SDS011;37940;53.002;6.930;2022-08-27T15:21:49;5.55;;;1.60;;
51913;SDS011;37940;53.002;6.930;2022-08-27T15:26:47;6.07;;;1.70;;
51913;SDS011;37940;53.002;6.930;2022-08-27T15:29:14;5.97;;;2.10;;
51913;SDS011;37940;53.002;6.930;2022-08-27T15:31:40;6.07;;;1.38;;
51913;SDS011;37940;53.002;6.930;2022-08-27T15:34:07;6.30;;;1.80;;
51913;SDS011;37940;53.002;6.930;2022-08-27T15:36:33;6.85;;;1.58;;
51913;SDS011;37940;53.002;6.930;2022-08-27T15:38:59;6.85;;;1.55;;
51913;SDS011;37940;53.002;6.930;2022-08-27T15:41:25;4.88;;;1.65;;
51913;SDS011;37940;53.002;6.930;2022-08-27T15:43:51;6.15;;;2.10;;
51913;SDS011;37940;53.002;6.930;2022-08-27T15:46:17;5.82;;;1.60;;
51913;SDS011;37940;53.002;6.930;2022-08-27T15:48:43;6.03;;;1.50;;
51913;SDS011;37940;53.002;6.930;2022-08-27T15:51:09;5.65;;;1.73;;
51913;SDS011;37940;53.002;6.930;2022-08-27T15:53:37;8.45;;;1.90;;
51913;SDS011;37940;53.002;6.930;2022-08-27T15:56:05;7.65;;;1.70;;
51913;SDS011;37940;53.002;6.930;2022-08-27T15:58:32;5.63;;;1.73;;
51913;SDS011;37940;53.002;6.930;2022-08-27T16:01:09;5.57;;;1.52;;
51913;SDS011;37940;53.002;6.930;2022-08-27T16:03:37;4.88;;;1.80;;
51913;SDS011;37940;53.002;6.930;2022-08-27T16:06:04;4.28;;;1.33;;
51913;SDS011;37940;53.002;6.930;2022-08-27T16:08:31;6.22;;;1.80;;
51913;SDS011;37940;53.002;6.930;2022-08-27T16:10:57;6.97;;;1.70;;
51913;SDS011;37940;53.002;6.930;2022-08-27T16:13:23;7.22;;;1.90;;
51913;SDS011;37940;53.002;6.930;2022-08-27T16:15:50;6.70;;;1.95;;
51913;SDS011;37940;53.002;6.930;2022-08-27T16:18:16;5.80;;;1.90;;
51913;SDS011;37940;53.002;6.930;2022-08-27T16:20:45;5.68;;;1.80;;
51913;SDS011;37940;53.002;6.930;2022-08-27T16:23:11;6.93;;;1.90;;
51913;SDS011;37940;53.002;6.930;2022-08-27T16:25:37;7.60;;;2.03;;
51913;SDS011;37940;53.002;6.930;2022-08-27T16:28:03;5.63;;;1.92;;
51913;SDS011;37940;53.002;6.930;2022-08-27T16:30:29;8.68;;;2.30;;
51913;SDS011;37940;53.002;6.930;2022-08-27T16:32:55;8.13;;;2.58;;